createdAt,value
2023-02-11T00:00:40.846Z,102650.56
2023-02-11T00:03:08.209Z,102646.44
2023-02-11T00:05:36.099Z,102642.03
2023-02-11T00:08:03.569Z,102635.19
2023-02-11T00:10:30.263Z,102641.53
2023-02-11T00:12:56.787Z,102634.63
2023-02-11T00:15:23.930Z,102637.38
2023-02-11T00:17:50.630Z,102642.28
2023-02-11T00:20:17.966Z,102637.91
2023-02-11T00:22:45.297Z,102634.34
2023-02-11T00:25:12.374Z,102641.25
2023-02-11T00:27:41.271Z,102641.00
2023-02-11T00:30:08.491Z,102630.22
2023-02-11T00:32:36.927Z,102636.56
2023-02-11T00:35:03.569Z,102623.56
2023-02-11T00:37:30.107Z,102625.19
2023-02-11T00:39:56.685Z,102628.75
2023-02-11T00:42:23.173Z,102628.78
2023-02-11T00:44:50.221Z,102626.25
2023-02-11T00:47:17.039Z,102618.56
2023-02-11T00:49:43.857Z,102616.31
2023-02-11T00:52:10.809Z,102612.19
2023-02-11T00:54:37.363Z,102600.31
2023-02-11T00:57:03.972Z,102598.63
2023-02-11T00:59:30.528Z,102606.28
2023-02-11T01:01:57.155Z,102607.56
2023-02-11T01:04:24.106Z,102600.47
2023-02-11T01:06:50.664Z,102596.56
2023-02-11T01:09:17.325Z,102603.41
2023-02-11T01:11:44.169Z,102601.31
2023-02-11T01:14:10.848Z,102602.38
2023-02-11T01:16:38.001Z,102606.25
2023-02-11T01:19:04.572Z,102613.31
2023-02-11T01:21:31.295Z,102613.75
2023-02-11T01:23:57.714Z,102613.06
2023-02-11T01:26:24.330Z,102606.00
2023-02-11T01:28:50.986Z,102598.28
2023-02-11T01:31:17.435Z,102597.69
2023-02-11T01:33:44.487Z,102586.66
2023-02-11T01:36:11.962Z,102588.81
2023-02-11T01:38:40.779Z,102589.22
2023-02-11T01:41:10.299Z,102588.97
2023-02-11T01:43:39.806Z,102595.31
2023-02-11T01:46:32.885Z,102594.16
2023-02-11T01:49:10.835Z,102597.75
2023-02-11T01:51:41.191Z,102603.69
2023-02-11T01:54:28.619Z,102604.78
2023-02-11T01:57:17.393Z,102603.41
2023-02-11T01:59:48.399Z,102602.84
2023-02-11T02:02:19.776Z,102592.66
2023-02-11T02:04:53.537Z,102593.78
2023-02-11T02:07:28.728Z,102596.06
2023-02-11T02:10:01.730Z,102594.66
2023-02-11T02:12:28.211Z,102609.44
2023-02-11T02:15:31.473Z,102616.16
2023-02-11T02:18:00.907Z,102612.94
2023-02-11T02:20:36.337Z,102610.72
2023-02-11T02:23:21.062Z,102614.09
2023-02-11T02:26:04.561Z,102611.19
2023-02-11T02:28:48.452Z,102613.97
2023-02-11T02:31:36.450Z,102606.53
2023-02-11T02:34:09.622Z,102609.53
2023-02-11T02:36:56.628Z,102595.63
2023-02-11T02:39:31.809Z,102590.69
2023-02-11T02:41:58.461Z,102576.47
2023-02-11T02:44:25.512Z,102580.03
2023-02-11T02:46:52.172Z,102590.16
2023-02-11T02:49:18.626Z,102588.66
2023-02-11T02:52:07.094Z,102591.53
2023-02-11T02:54:33.849Z,102587.78
2023-02-11T02:57:32.794Z,102593.72
2023-02-11T03:00:29.727Z,102592.06
2023-02-11T03:03:38.249Z,102590.94
2023-02-11T03:06:14.164Z,102587.88
2023-02-11T03:08:47.141Z,102577.63
2023-02-11T03:11:16.982Z,102576.25
2023-02-11T03:13:46.310Z,102574.59
2023-02-11T03:16:38.961Z,102558.19
2023-02-11T03:19:12.571Z,102539.28
2023-02-11T03:21:42.960Z,102526.53
2023-02-11T03:24:16.773Z,102549.16
2023-02-11T03:26:49.611Z,102558.13
2023-02-11T03:29:51.451Z,102554.50
2023-02-11T03:32:32.692Z,102546.72
2023-02-11T03:35:10.350Z,102565.16
2023-02-11T03:37:53.079Z,102573.19
2023-02-11T03:40:26.766Z,102578.13
2023-02-11T03:43:00.208Z,102573.91
2023-02-11T03:45:28.521Z,102566.69
2023-02-11T03:48:00.023Z,102573.28
2023-02-11T03:50:31.111Z,102574.72
2023-02-11T03:53:01.893Z,102563.38
2023-02-11T03:55:30.664Z,102556.69
2023-02-11T03:57:57.476Z,102560.34
2023-02-11T04:00:32.480Z,102557.16
2023-02-11T04:03:01.295Z,102543.28
2023-02-11T04:05:28.197Z,102542.88
2023-02-11T04:07:54.771Z,102544.47
2023-02-11T04:10:21.377Z,102548.16
2023-02-11T04:12:47.989Z,102549.88
2023-02-11T04:15:14.765Z,102550.56
2023-02-11T04:17:42.065Z,102548.38
2023-02-11T04:20:09.230Z,102545.66
2023-02-11T04:22:36.387Z,102547.91
2023-02-11T04:25:04.310Z,102553.91
2023-02-11T04:27:31.508Z,102549.50
2023-02-11T04:29:57.883Z,102550.81
2023-02-11T04:32:24.963Z,102560.41
2023-02-11T04:34:51.929Z,102557.69
2023-02-11T04:37:18.388Z,102549.97
2023-02-11T04:39:45.227Z,102543.97
2023-02-11T04:42:12.440Z,102538.81
2023-02-11T04:44:39.669Z,102543.38
2023-02-11T04:47:06.229Z,102544.44
2023-02-11T04:49:32.648Z,102543.44
2023-02-11T04:51:59.397Z,102553.56
2023-02-11T04:54:25.928Z,102551.72
2023-02-11T04:56:52.689Z,102546.53
2023-02-11T04:59:19.020Z,102532.16
2023-02-11T05:01:45.867Z,102537.75
2023-02-11T05:04:12.543Z,102538.53
2023-02-11T05:06:39.932Z,102531.25
2023-02-11T05:09:06.337Z,102525.25
2023-02-11T05:11:32.901Z,102523.91
2023-02-11T05:13:59.989Z,102524.59
2023-02-11T05:16:27.019Z,102520.19
2023-02-11T05:18:55.508Z,102528.59
2023-02-11T05:21:22.887Z,102529.66
2023-02-11T05:23:50.247Z,102524.69
2023-02-11T05:26:17.108Z,102525.56
2023-02-11T05:28:44.841Z,102526.75
2023-02-11T05:31:12.366Z,102528.50
2023-02-11T05:33:39.050Z,102524.69
2023-02-11T05:36:09.276Z,102529.66
2023-02-11T05:38:36.345Z,102526.16
2023-02-11T05:41:04.724Z,102524.78
2023-02-11T05:43:31.595Z,102524.78
2023-02-11T05:45:58.508Z,102519.94
2023-02-11T05:48:24.992Z,102527.16
2023-02-11T05:50:51.453Z,102525.75
2023-02-11T05:53:18.019Z,102526.56
2023-02-11T05:55:44.962Z,102527.69
2023-02-11T05:58:11.355Z,102523.63
2023-02-11T06:00:38.520Z,102528.13
2023-02-11T06:03:05.666Z,102530.53
2023-02-11T06:05:32.400Z,102519.00
2023-02-11T06:07:59.434Z,102519.06
2023-02-11T06:10:26.690Z,102516.78
2023-02-11T06:12:53.097Z,102511.78
2023-02-11T06:15:20.050Z,102505.19
2023-02-11T06:17:46.749Z,102498.88
2023-02-11T06:20:13.393Z,102512.34
2023-02-11T06:22:40.593Z,102521.72
2023-02-11T06:25:07.184Z,102519.22
2023-02-11T06:27:33.784Z,102512.91
2023-02-11T06:30:01.451Z,102504.63
2023-02-11T06:32:43.981Z,102507.19
2023-02-11T06:35:12.713Z,102504.16
2023-02-11T06:37:40.823Z,102501.41
2023-02-11T06:40:07.566Z,102494.25
2023-02-11T06:42:35.980Z,102498.09
2023-02-11T06:45:05.867Z,102493.41
2023-02-11T06:47:33.135Z,102512.38
2023-02-11T06:49:59.546Z,102500.31
2023-02-11T06:52:26.616Z,102519.06
2023-02-11T06:54:53.261Z,102521.00
2023-02-11T06:57:19.758Z,102518.84
2023-02-11T06:59:46.312Z,102525.41
2023-02-11T07:02:12.844Z,102534.25
2023-02-11T07:04:39.978Z,102549.97
2023-02-11T07:07:06.528Z,102543.06
2023-02-11T07:09:33.551Z,102551.56
2023-02-11T07:12:00.154Z,102551.59
2023-02-11T07:14:27.189Z,102545.63
2023-02-11T07:16:53.994Z,102552.47
2023-02-11T07:19:20.390Z,102548.41
2023-02-11T07:21:48.497Z,102544.03
2023-02-11T07:24:15.241Z,102552.00
2023-02-11T07:26:41.756Z,102549.28
2023-02-11T07:29:08.193Z,102552.63
2023-02-11T07:31:34.699Z,102557.94
2023-02-11T07:34:02.114Z,102557.91
2023-02-11T07:36:31.691Z,102557.09
2023-02-11T07:38:58.938Z,102560.63
2023-02-11T07:41:26.082Z,102562.59
2023-02-11T07:43:53.036Z,102566.97
2023-02-11T07:46:22.152Z,102570.03
2023-02-11T07:48:48.863Z,102564.56
2023-02-11T07:51:20.813Z,102569.75
2023-02-11T07:53:49.344Z,102570.28
2023-02-11T07:56:17.262Z,102560.69
2023-02-11T07:58:44.564Z,102565.38
2023-02-11T08:01:15.441Z,102571.22
2023-02-11T08:03:43.177Z,102576.47
2023-02-11T08:06:16.504Z,102570.13
2023-02-11T08:08:44.047Z,102588.88
2023-02-11T08:11:16.917Z,102586.09
2023-02-11T08:13:44.251Z,102580.56
2023-02-11T08:16:24.195Z,102592.16
2023-02-11T08:18:51.682Z,102596.56
2023-02-11T08:21:19.326Z,102596.59
2023-02-11T08:23:46.886Z,102598.78
2023-02-11T08:26:16.579Z,102591.91
2023-02-11T08:28:46.369Z,102597.44
2023-02-11T08:31:25.230Z,102583.97
2023-02-11T08:33:53.179Z,102596.09
2023-02-11T08:36:25.274Z,102604.88
2023-02-11T08:38:57.161Z,102606.00
2023-02-11T08:41:29.760Z,102599.69
2023-02-11T08:43:56.368Z,102602.97
2023-02-11T08:46:23.053Z,102604.63
2023-02-11T08:48:50.182Z,102600.22
2023-02-11T08:51:28.539Z,102603.28
2023-02-11T08:53:55.835Z,102604.91
2023-02-11T08:56:24.815Z,102603.81
2023-02-11T08:58:52.754Z,102615.66
2023-02-11T09:01:24.989Z,102601.31
2023-02-11T09:03:52.571Z,102598.53
2023-02-11T09:06:19.709Z,102598.22
2023-02-11T09:08:49.362Z,102599.91
2023-02-11T09:11:18.840Z,102603.19
2023-02-11T09:13:46.049Z,102608.72
2023-02-11T09:16:26.231Z,102606.78
2023-02-11T09:18:53.495Z,102617.00
2023-02-11T09:21:20.269Z,102624.75
2023-02-11T09:23:47.888Z,102621.97
2023-02-11T09:26:18.587Z,102627.19
2023-02-11T09:28:45.790Z,102629.97
2023-02-11T09:31:16.404Z,102632.72
2023-02-11T09:33:47.891Z,102637.44
2023-02-11T09:36:32.210Z,102634.09
2023-02-11T09:39:00.826Z,102638.50
2023-02-11T09:41:41.352Z,102646.50
2023-02-11T09:44:17.998Z,102647.06
2023-02-11T09:46:53.091Z,102647.84
2023-02-11T09:49:26.319Z,102646.78
2023-02-11T09:52:54.130Z,102643.69
2023-02-11T09:55:26.786Z,102640.03
2023-02-11T09:57:56.017Z,102648.31
2023-02-11T10:00:28.489Z,102647.44
2023-02-11T10:03:03.815Z,102654.88
2023-02-11T10:05:43.059Z,102655.19
2023-02-11T10:08:25.757Z,102649.63
2023-02-11T10:11:02.929Z,102651.19
2023-02-11T10:13:42.690Z,102656.19
2023-02-11T10:16:41.888Z,102650.91
2023-02-11T10:19:28.036Z,102653.66
2023-02-11T10:22:13.267Z,102653.59
2023-02-11T10:24:55.344Z,102664.53
2023-02-11T10:27:30.524Z,102663.25
2023-02-11T10:30:16.434Z,102663.25
2023-02-11T10:32:48.522Z,102657.13
2023-02-11T10:35:21.554Z,102659.00
2023-02-11T10:37:49.054Z,102656.22
2023-02-11T10:40:22.225Z,102658.41
2023-02-11T10:42:55.105Z,102653.66
2023-02-11T10:45:31.958Z,102658.34
2023-02-11T10:48:00.650Z,102663.22
2023-02-11T10:50:30.214Z,102665.41
2023-02-11T10:53:15.427Z,102658.00
2023-02-11T10:55:51.085Z,102669.63
2023-02-11T10:58:25.513Z,102662.44
2023-02-11T11:00:55.066Z,102657.94
2023-02-11T11:03:25.261Z,102655.88
2023-02-11T11:05:59.731Z,102656.28
2023-02-11T11:08:43.509Z,102650.25
2023-02-11T11:11:13.183Z,102655.25
2023-02-11T11:13:58.053Z,102645.41
2023-02-11T11:16:35.512Z,102648.84
2023-02-11T11:19:07.776Z,102640.69
2023-02-11T11:21:43.340Z,102648.91
2023-02-11T11:24:31.168Z,102651.66
2023-02-11T11:27:03.634Z,102642.53
2023-02-11T11:29:35.429Z,102639.28
2023-02-11T11:32:05.775Z,102631.34
2023-02-11T11:34:40.443Z,102631.63
2023-02-11T11:37:20.238Z,102618.31
2023-02-11T11:39:57.679Z,102626.16
2023-02-11T11:42:28.714Z,102627.84
2023-02-11T11:45:23.096Z,102620.28
2023-02-11T11:47:59.662Z,102612.28
2023-02-11T11:50:29.144Z,102617.25
2023-02-11T11:53:04.877Z,102611.78
2023-02-11T11:55:37.868Z,102605.69
2023-02-11T11:58:10.501Z,102612.34
2023-02-11T12:00:54.237Z,102604.63
2023-02-11T12:03:56.392Z,102602.97
2023-02-11T12:06:48.115Z,102602.38
2023-02-11T12:09:25.801Z,102602.38
2023-02-11T12:12:11.419Z,102604.41
2023-02-11T12:14:53.729Z,102598.94
2023-02-11T12:17:35.259Z,102597.22
2023-02-11T12:20:35.353Z,102599.97
2023-02-11T12:23:15.124Z,102616.88
2023-02-11T12:25:59.027Z,102617.06
2023-02-11T12:28:40.248Z,102617.63
2023-02-11T12:31:19.849Z,102617.31
2023-02-11T12:34:18.704Z,102616.31
2023-02-11T12:37:06.243Z,102619.91
2023-02-11T12:39:40.407Z,102619.38
2023-02-11T12:42:55.679Z,102620.19
2023-02-11T12:45:41.468Z,102625.59
2023-02-11T12:48:29.042Z,102627.63
2023-02-11T12:51:06.885Z,102625.03
2023-02-11T12:53:44.147Z,102625.38
2023-02-11T12:56:29.170Z,102619.44
2023-02-11T12:58:58.866Z,102619.31
2023-02-11T13:01:36.539Z,102628.22
2023-02-11T13:04:11.863Z,102619.38
2023-02-11T13:06:48.945Z,102615.28
2023-02-11T13:09:22.497Z,102625.38
2023-02-11T13:11:57.699Z,102619.38
2023-02-11T13:14:38.953Z,102618.31
2023-02-11T13:17:27.332Z,102617.63
2023-02-11T13:20:01.364Z,102619.69
2023-02-11T13:22:57.575Z,102612.41
2023-02-11T13:25:43.371Z,102603.81
2023-02-11T13:28:28.814Z,102603.81
2023-02-11T13:31:03.023Z,102603.94
2023-02-11T13:33:39.335Z,102612.84
2023-02-11T13:36:05.972Z,102597.09
2023-02-11T13:38:33.029Z,102598.84
2023-02-11T13:41:07.068Z,102597.50
2023-02-11T13:43:36.194Z,102601.63
2023-02-11T13:46:05.785Z,102606.41
2023-02-11T13:48:53.833Z,102590.75
2023-02-11T13:51:38.935Z,102596.28
2023-02-11T13:54:07.526Z,102598.28
2023-02-11T13:56:43.961Z,102600.50
2023-02-11T13:59:26.267Z,102591.66
2023-02-11T14:02:11.938Z,102595.66
2023-02-11T14:05:23.530Z,102591.97
2023-02-11T14:08:30.136Z,102600.94
2023-02-11T14:10:58.969Z,102594.22
2023-02-11T14:13:30.711Z,102600.66
2023-02-11T14:16:20.382Z,102590.88
2023-02-11T14:18:55.683Z,102587.94
2023-02-11T14:21:32.211Z,102595.56
2023-02-11T14:24:01.870Z,102599.38
2023-02-11T14:26:42.538Z,102601.59
2023-02-11T14:29:27.419Z,102603.81
2023-02-11T14:32:25.984Z,102607.34
2023-02-11T14:35:04.293Z,102608.41
2023-02-11T14:37:50.762Z,102611.47
2023-02-11T14:40:32.195Z,102614.84
2023-02-11T14:43:11.562Z,102607.78
2023-02-11T14:45:39.051Z,102614.66
2023-02-11T14:48:14.784Z,102612.06
2023-02-11T14:50:53.937Z,102617.38
2023-02-11T14:53:23.936Z,102617.09
2023-02-11T14:55:52.802Z,102612.69
2023-02-11T14:58:30.621Z,102609.22
2023-02-11T15:01:00.952Z,102601.28
2023-02-11T15:03:33.437Z,102599.72
2023-02-11T15:06:05.556Z,102611.16
2023-02-11T15:08:35.969Z,102602.78
2023-02-11T15:11:07.910Z,102606.06
2023-02-11T15:13:35.041Z,102611.09
2023-02-11T15:16:06.849Z,102612.81
2023-02-11T15:18:40.594Z,102618.53
2023-02-11T15:21:08.897Z,102619.78
2023-02-11T15:23:37.136Z,102619.38
2023-02-11T15:26:13.067Z,102632.41
2023-02-11T15:28:48.851Z,102628.28
2023-02-11T15:31:17.361Z,102636.38
2023-02-11T15:33:44.437Z,102632.25
2023-02-11T15:36:11.667Z,102639.44
2023-02-11T15:38:38.673Z,102637.72
2023-02-11T15:41:07.356Z,102640.72
2023-02-11T15:43:48.011Z,102635.56
2023-02-11T15:46:18.681Z,102634.19
2023-02-11T15:48:51.658Z,102642.75
2023-02-11T15:51:28.616Z,102635.31
2023-02-11T15:53:59.238Z,102628.72
2023-02-11T15:56:30.592Z,102629.53
2023-02-11T15:59:00.678Z,102639.56
2023-02-11T16:01:36.745Z,102636.28
2023-02-11T16:04:05.264Z,102637.94
2023-02-11T16:06:39.994Z,102638.47
2023-02-11T16:09:08.524Z,102636.81
2023-02-11T16:11:38.385Z,102635.69
2023-02-11T16:14:22.809Z,102636.78
2023-02-11T16:16:52.812Z,102642.38
2023-02-11T16:19:22.971Z,102646.84
2023-02-11T16:21:53.374Z,102652.06
2023-02-11T16:24:34.093Z,102652.41
2023-02-11T16:27:03.917Z,102655.28
2023-02-11T16:29:33.343Z,102648.69
2023-02-11T16:32:19.417Z,102663.69
2023-02-11T16:34:47.460Z,102670.41
2023-02-11T16:37:14.457Z,102671.22
2023-02-11T16:39:41.573Z,102676.00
2023-02-11T16:42:10.904Z,102684.84
2023-02-11T16:44:37.780Z,102691.41
2023-02-11T16:47:08.199Z,102685.25
2023-02-11T16:49:39.997Z,102691.19
2023-02-11T16:52:09.179Z,102685.66
2023-02-11T16:54:35.648Z,102698.25
2023-02-11T16:57:02.529Z,102696.84
2023-02-11T16:59:29.668Z,102695.19
2023-02-11T17:01:57.369Z,102705.19
2023-02-11T17:04:29.885Z,102709.72
2023-02-11T17:06:58.705Z,102712.22
2023-02-11T17:09:30.337Z,102714.72
2023-02-11T17:11:57.914Z,102711.75
2023-02-11T17:14:28.608Z,102718.91
2023-02-11T17:16:57.030Z,102718.13
2023-02-11T17:19:23.854Z,102717.06
2023-02-11T17:21:52.342Z,102723.94
2023-02-11T17:24:20.560Z,102728.66
2023-02-11T17:26:48.092Z,102731.47
2023-02-11T17:29:18.303Z,102732.53
2023-02-11T17:31:45.324Z,102733.13
2023-02-11T17:34:14.631Z,102730.69
2023-02-11T17:36:41.382Z,102732.91
2023-02-11T17:39:08.626Z,102744.81
2023-02-11T17:41:36.236Z,102742.50
2023-02-11T17:44:03.529Z,102745.81
2023-02-11T17:46:30.227Z,102746.09
2023-02-11T17:48:58.748Z,102742.75
2023-02-11T17:51:27.991Z,102744.75
2023-02-11T17:54:00.020Z,102743.63
2023-02-11T17:56:26.807Z,102752.56
2023-02-11T17:58:53.818Z,102757.81
2023-02-11T18:01:20.557Z,102760.53
2023-02-11T18:03:47.636Z,102764.16
2023-02-11T18:06:14.540Z,102760.06
2023-02-11T18:08:43.060Z,102765.88
2023-02-11T18:11:10.831Z,102765.38
2023-02-11T18:13:37.475Z,102771.19
2023-02-11T18:16:06.128Z,102771.19
2023-02-11T18:18:33.828Z,102768.13
2023-02-11T18:21:03.878Z,102771.22
2023-02-11T18:23:30.580Z,102774.22
2023-02-11T18:25:56.991Z,102768.38
2023-02-11T18:28:25.884Z,102766.50
2023-02-11T18:30:59.463Z,102764.34
2023-02-11T18:33:27.360Z,102770.34
2023-02-11T18:35:53.996Z,102770.13
2023-02-11T18:38:22.352Z,102768.13
2023-02-11T18:40:50.415Z,102770.34
2023-02-11T18:43:18.796Z,102776.47
2023-02-11T18:45:47.123Z,102768.13
2023-02-11T18:48:14.132Z,102770.19
2023-02-11T18:50:44.461Z,102766.78
2023-02-11T18:53:13.331Z,102769.66
2023-02-11T18:55:42.676Z,102768.84
2023-02-11T18:58:10.867Z,102769.09
2023-02-11T19:00:41.182Z,102769.66
2023-02-11T19:03:07.904Z,102774.09
2023-02-11T19:05:48.327Z,102775.13
2023-02-11T19:08:15.514Z,102775.72
2023-02-11T19:10:45.102Z,102775.97
2023-02-11T19:13:11.970Z,102761.91
2023-02-11T19:15:43.363Z,102755.53
2023-02-11T19:18:10.775Z,102769.13
2023-02-11T19:20:42.486Z,102768.88
2023-02-11T19:23:09.268Z,102772.47
2023-02-11T19:25:36.069Z,102768.88
2023-02-11T19:28:03.806Z,102777.72
2023-02-11T19:30:30.544Z,102775.50
2023-02-11T19:32:57.927Z,102769.34
2023-02-11T19:35:24.848Z,102778.22
2023-02-11T19:37:51.406Z,102770.75
2023-02-11T19:40:19.174Z,102772.16
2023-02-11T19:42:45.702Z,102779.34
2023-02-11T19:45:14.404Z,102773.25
2023-02-11T19:47:41.233Z,102782.63
2023-02-11T19:50:08.541Z,102794.22
2023-02-11T19:52:46.165Z,102794.22
2023-02-11T19:55:13.011Z,102802.53
2023-02-11T19:57:40.028Z,102809.69
2023-02-11T20:00:07.443Z,102799.72
2023-02-11T20:02:37.797Z,102801.44
2023-02-11T20:05:04.960Z,102808.06
2023-02-11T20:07:31.381Z,102801.44
2023-02-11T20:09:57.984Z,102793.66
2023-02-11T20:12:24.370Z,102803.09
2023-02-11T20:14:51.071Z,102795.66
2023-02-11T20:17:17.529Z,102811.09
2023-02-11T20:19:43.995Z,102801.91
2023-02-11T20:22:10.358Z,102805.28
2023-02-11T20:24:36.822Z,102805.31
2023-02-11T20:27:03.326Z,102807.53
2023-02-11T20:29:31.696Z,102815.34
2023-02-11T20:31:58.439Z,102812.66
2023-02-11T20:34:25.280Z,102812.13
2023-02-11T20:36:52.385Z,102808.25
2023-02-11T20:39:22.130Z,102814.38
2023-02-11T20:41:49.525Z,102815.25
2023-02-11T20:44:16.411Z,102817.72
2023-02-11T20:46:48.224Z,102818.88
2023-02-11T20:49:18.696Z,102817.44
2023-02-11T20:51:46.106Z,102814.13
2023-02-11T20:54:15.978Z,102822.75
2023-02-11T20:56:45.516Z,102818.06
2023-02-11T20:59:14.056Z,102817.22
2023-02-11T21:01:44.167Z,102819.13
2023-02-11T21:04:14.383Z,102821.91
2023-02-11T21:06:44.689Z,102825.47
2023-02-11T21:09:14.011Z,102831.53
2023-02-11T21:11:41.244Z,102833.47
2023-02-11T21:14:08.188Z,102834.06
2023-02-11T21:16:34.904Z,102844.88
2023-02-11T21:19:02.889Z,102830.72
2023-02-11T21:21:30.045Z,102831.28
2023-02-11T21:23:58.364Z,102829.09
2023-02-11T21:26:25.390Z,102836.84
2023-02-11T21:28:52.107Z,102828.28
2023-02-11T21:31:23.251Z,102820.50
2023-02-11T21:33:51.147Z,102826.03
2023-02-11T21:36:17.862Z,102827.16
2023-02-11T21:38:44.330Z,102826.31
2023-02-11T21:41:10.751Z,102828.78
2023-02-11T21:43:37.566Z,102834.00
2023-02-11T21:46:14.890Z,102831.50
2023-02-11T21:48:41.955Z,102842.94
2023-02-11T21:51:11.150Z,102836.03
2023-02-11T21:53:37.909Z,102831.66
2023-02-11T21:56:10.182Z,102828.38
2023-02-11T21:58:37.854Z,102821.78
2023-02-11T22:01:18.228Z,102832.84
2023-02-11T22:03:45.509Z,102835.88
2023-02-11T22:06:15.184Z,102836.72
2023-02-11T22:08:42.883Z,102842.22
2023-02-11T22:11:12.546Z,102843.34
2023-02-11T22:13:39.969Z,102848.31
2023-02-11T22:16:09.525Z,102846.66
2023-02-11T22:18:37.247Z,102848.84
2023-02-11T22:21:08.014Z,102849.13
2023-02-11T22:23:36.016Z,102854.34
2023-02-11T22:26:14.924Z,102851.00
2023-02-11T22:28:41.454Z,102857.59
2023-02-11T22:31:13.411Z,102854.84
2023-02-11T22:33:40.420Z,102858.75
2023-02-11T22:36:12.315Z,102862.63
2023-02-11T22:38:38.737Z,102865.94
2023-02-11T22:41:07.842Z,102868.72
2023-02-11T22:43:34.874Z,102870.38
2023-02-11T22:46:05.822Z,102871.50
2023-02-11T22:48:34.157Z,102871.75
2023-02-11T22:51:08.565Z,102872.06
2023-02-11T22:53:35.501Z,102873.16
2023-02-11T22:56:07.347Z,102880.03
2023-02-11T22:58:35.472Z,102879.78
2023-02-11T23:01:02.858Z,102886.69
2023-02-11T23:03:31.319Z,102887.53
2023-02-11T23:06:00.817Z,102886.16
2023-02-11T23:08:29.876Z,102884.22
2023-02-11T23:11:04.262Z,102882.56
2023-02-11T23:13:34.730Z,102888.91
2023-02-11T23:16:07.318Z,102892.50
2023-02-11T23:18:38.581Z,102903.00
2023-02-11T23:21:15.683Z,102898.03
2023-02-11T23:23:43.208Z,102897.19
2023-02-11T23:26:12.607Z,102907.94
2023-02-11T23:28:39.675Z,102901.63
2023-02-11T23:31:18.105Z,102900.22
2023-02-11T23:33:46.687Z,102902.44
2023-02-11T23:36:15.116Z,102900.81
2023-02-11T23:38:42.302Z,102884.50
2023-02-11T23:41:10.088Z,102898.03
2023-02-11T23:43:37.480Z,102891.69
2023-02-11T23:46:05.006Z,102891.13
2023-02-11T23:48:33.831Z,102893.06
2023-02-11T23:51:00.570Z,102898.31
2023-02-11T23:53:28.081Z,102896.91
2023-02-11T23:55:55.037Z,102894.16
2023-02-11T23:58:21.977Z,102893.31
